createdAt,value
2022-11-03T00:01:56.164Z,17.80
2022-11-03T00:04:23.781Z,17.30
2022-11-03T00:06:52.656Z,18.20
2022-11-03T00:09:21.132Z,18.20
2022-11-03T00:11:51.688Z,17.20
2022-11-03T00:14:19.447Z,19.00
2022-11-03T00:16:46.690Z,18.20
2022-11-03T00:19:16.392Z,18.80
2022-11-03T00:21:43.709Z,18.10
2022-11-03T00:24:10.907Z,18.10
2022-11-03T00:26:37.789Z,17.40
2022-11-03T00:29:10.776Z,18.50
2022-11-03T00:31:39.610Z,16.70
2022-11-03T00:34:07.380Z,17.20
2022-11-03T00:36:37.498Z,18.10
2022-11-03T00:39:05.157Z,18.40
2022-11-03T00:41:32.629Z,19.30
2022-11-03T00:43:59.818Z,18.00
2022-11-03T00:46:27.184Z,17.00
2022-11-03T00:48:53.895Z,17.40
2022-11-03T00:51:22.726Z,17.70
2022-11-03T00:53:52.920Z,17.70
2022-11-03T00:56:22.946Z,17.20
2022-11-03T00:58:51.469Z,18.70
2022-11-03T01:01:21.140Z,17.80
2022-11-03T01:04:06.847Z,17.10
2022-11-03T01:06:51.241Z,16.70
2022-11-03T01:09:18.365Z,16.80
2022-11-03T01:12:00.839Z,15.80
2022-11-03T01:14:36.100Z,14.50
2022-11-03T01:17:06.558Z,13.90
2022-11-03T01:19:33.334Z,13.90
2022-11-03T01:22:00.069Z,14.60
2022-11-03T01:24:27.013Z,13.80
2022-11-03T01:26:53.825Z,14.10
2022-11-03T01:29:20.605Z,15.90
2022-11-03T01:31:47.613Z,14.70
2022-11-03T01:34:16.763Z,13.60
2022-11-03T01:36:44.694Z,13.60
2022-11-03T01:39:12.762Z,14.40
2022-11-03T01:41:40.774Z,15.30
2022-11-03T01:44:07.447Z,14.30
2022-11-03T01:46:41.578Z,14.60
2022-11-03T01:51:39.417Z,13.10
2022-11-03T01:54:10.703Z,15.00
2022-11-03T01:56:41.087Z,14.10
2022-11-03T01:59:08.157Z,14.60
2022-11-03T02:01:35.336Z,15.90
2022-11-03T02:04:11.239Z,19.40
2022-11-03T02:06:38.103Z,18.00
2022-11-03T02:09:08.090Z,18.30
2022-11-03T02:11:52.164Z,18.10
2022-11-03T02:14:19.194Z,16.90
2022-11-03T02:16:53.157Z,17.80
2022-11-03T02:19:33.209Z,19.60
2022-11-03T02:22:05.759Z,19.20
2022-11-03T02:24:52.937Z,18.70
2022-11-03T02:27:21.755Z,19.50
2022-11-03T02:29:49.153Z,20.30
2022-11-03T02:32:23.005Z,18.20
2022-11-03T02:34:54.356Z,17.50
2022-11-03T02:37:27.204Z,15.50
2022-11-03T02:40:02.049Z,15.70
2022-11-03T02:42:30.453Z,15.10
2022-11-03T02:45:02.365Z,17.60
2022-11-03T02:47:31.471Z,16.60
2022-11-03T02:49:58.404Z,17.90
2022-11-03T02:52:42.455Z,17.60
2022-11-03T02:55:11.695Z,17.80
2022-11-03T02:57:47.811Z,17.10
2022-11-03T03:00:15.937Z,16.90
2022-11-03T03:02:55.386Z,23.30
2022-11-03T03:05:27.812Z,17.70
2022-11-03T03:08:00.919Z,17.40
2022-11-03T03:10:33.973Z,17.20
2022-11-03T03:13:03.967Z,16.30
2022-11-03T03:15:37.446Z,16.90
2022-11-03T03:18:16.198Z,16.80
2022-11-03T03:20:50.313Z,16.80
2022-11-03T03:25:50.725Z,15.20
2022-11-03T03:28:29.014Z,16.10
2022-11-03T03:30:59.222Z,15.80
2022-11-03T03:35:57.571Z,16.70
2022-11-03T03:38:30.333Z,15.10
2022-11-03T03:41:02.081Z,14.80
2022-11-03T03:43:32.819Z,17.60
2022-11-03T03:46:06.544Z,18.10
2022-11-03T03:48:33.780Z,16.40
2022-11-03T03:51:02.572Z,16.20
2022-11-03T03:53:30.383Z,18.10
2022-11-03T03:55:58.977Z,19.40
2022-11-03T03:58:25.854Z,18.20
2022-11-03T04:00:52.622Z,20.00
2022-11-03T04:03:22.555Z,19.20
2022-11-03T04:05:49.821Z,18.80
2022-11-03T04:08:17.555Z,17.20
2022-11-03T04:11:04.940Z,17.70
2022-11-03T04:13:48.741Z,17.30
2022-11-03T04:16:31.440Z,16.20
2022-11-03T04:19:13.648Z,16.30
2022-11-03T04:21:56.035Z,17.60
2022-11-03T04:24:22.786Z,19.40
2022-11-03T04:26:49.557Z,19.80
2022-11-03T04:29:16.721Z,20.20
2022-11-03T04:31:43.502Z,20.00
2022-11-03T04:34:12.683Z,20.10
2022-11-03T04:36:39.620Z,18.20
2022-11-03T04:39:17.531Z,19.20
2022-11-03T04:41:45.477Z,20.00
2022-11-03T04:44:16.727Z,19.40
2022-11-03T04:46:46.050Z,19.40
2022-11-03T04:49:21.822Z,17.80
2022-11-03T04:51:49.663Z,18.70
2022-11-03T04:54:19.930Z,18.40
2022-11-03T04:56:46.618Z,20.10
2022-11-03T04:59:15.083Z,19.70
2022-11-03T05:01:44.167Z,19.50
2022-11-03T05:04:15.356Z,19.50
2022-11-03T05:06:49.342Z,20.10
2022-11-03T05:09:20.955Z,19.60
2022-11-03T05:11:48.024Z,21.70
2022-11-03T05:14:19.977Z,18.10
2022-11-03T05:16:48.518Z,17.10
2022-11-03T05:19:20.238Z,17.70
2022-11-03T05:21:50.288Z,18.30
2022-11-03T05:24:21.299Z,17.40
2022-11-03T05:26:49.826Z,18.00
2022-11-03T05:29:20.052Z,18.40
2022-11-03T05:31:48.719Z,18.60
2022-11-03T05:34:39.886Z,19.90
2022-11-03T05:37:06.582Z,21.70
2022-11-03T05:39:45.056Z,23.10
2022-11-03T05:42:20.518Z,27.50
2022-11-03T05:44:47.783Z,27.90
2022-11-03T05:47:20.833Z,27.60
2022-11-03T05:49:51.144Z,13.60
2022-11-03T05:52:24.423Z,15.90
2022-11-03T05:54:53.485Z,24.30
2022-11-03T05:57:20.411Z,22.90
2022-11-03T05:59:49.921Z,22.90
2022-11-03T06:02:33.418Z,18.20
2022-11-03T06:05:00.279Z,23.80
2022-11-03T06:07:30.260Z,25.50
2022-11-03T06:09:58.603Z,26.80
2022-11-03T06:12:26.077Z,13.40
2022-11-03T06:14:53.102Z,17.50
2022-11-03T06:17:25.197Z,23.70
2022-11-03T06:19:56.438Z,23.30
2022-11-03T06:22:29.063Z,24.50
2022-11-03T06:24:59.610Z,24.60
2022-11-03T06:27:30.973Z,22.70
2022-11-03T06:30:00.927Z,24.30
2022-11-03T06:32:28.346Z,21.00
2022-11-03T06:34:57.781Z,16.90
2022-11-03T06:37:31.117Z,21.00
2022-11-03T06:40:01.780Z,26.80
2022-11-03T06:42:33.383Z,21.90
2022-11-03T06:45:02.537Z,24.90
2022-11-03T06:47:29.705Z,22.60
2022-11-03T06:50:00.595Z,29.90
2022-11-03T06:52:35.291Z,22.90
2022-11-03T06:55:22.006Z,23.20
2022-11-03T06:57:52.138Z,20.50
2022-11-03T07:00:40.347Z,20.20
2022-11-03T07:03:16.330Z,28.70
2022-11-03T07:05:45.468Z,22.20
2022-11-03T07:08:30.358Z,24.80
2022-11-03T07:11:03.242Z,23.70
2022-11-03T07:13:32.703Z,26.60
2022-11-03T07:15:59.595Z,23.70
2022-11-03T07:18:34.322Z,24.90
2022-11-03T07:21:17.906Z,22.60
2022-11-03T07:23:47.294Z,23.30
2022-11-03T07:26:14.146Z,25.00
2022-11-03T07:28:41.204Z,24.40
2022-11-03T07:31:18.418Z,22.70
2022-11-03T07:33:45.656Z,23.80
2022-11-03T07:36:18.358Z,22.90
2022-11-03T07:38:48.263Z,23.30
2022-11-03T07:41:20.249Z,20.70
2022-11-03T07:43:54.062Z,21.40
2022-11-03T07:46:22.405Z,32.60
2022-11-03T07:48:52.425Z,29.00
2022-11-03T07:51:24.087Z,20.60
2022-11-03T07:53:55.179Z,20.50
2022-11-03T07:56:25.207Z,23.60
2022-11-03T07:58:59.081Z,23.00
2022-11-03T08:01:32.327Z,21.60
2022-11-03T08:04:05.042Z,21.30
2022-11-03T08:06:32.410Z,19.60
2022-11-03T08:08:59.450Z,20.40
2022-11-03T08:11:29.217Z,19.50
2022-11-03T08:13:57.049Z,17.40
2022-11-03T08:16:23.830Z,18.20
2022-11-03T08:18:50.574Z,18.60
2022-11-03T08:21:17.539Z,17.70
2022-11-03T08:23:47.335Z,21.70
2022-11-03T08:26:15.932Z,20.20
2022-11-03T08:28:42.712Z,17.60
2022-11-03T08:31:12.917Z,15.40
2022-11-03T08:33:40.940Z,13.60
2022-11-03T08:36:08.785Z,13.70
2022-11-03T08:38:36.038Z,13.60
2022-11-03T08:41:04.188Z,11.90
2022-11-03T08:43:30.932Z,12.00
2022-11-03T08:46:05.606Z,12.30
2022-11-03T08:48:36.968Z,10.90
2022-11-03T08:51:03.873Z,15.40
2022-11-03T08:53:30.610Z,16.20
2022-11-03T08:55:57.348Z,14.20
2022-11-03T08:58:24.127Z,14.30
2022-11-03T09:00:50.924Z,12.80
2022-11-03T09:03:17.892Z,13.30
2022-11-03T09:05:44.709Z,14.80
2022-11-03T09:10:58.856Z,13.70
2022-11-03T09:13:25.654Z,10.00
2022-11-03T09:15:52.871Z,7.60
2022-11-03T09:18:19.703Z,12.20
2022-11-03T09:20:46.443Z,7.00
2022-11-03T09:23:13.320Z,5.80
2022-11-03T09:25:40.008Z,5.80
2022-11-03T09:28:07.105Z,5.10
2022-11-03T09:30:34.249Z,5.20
2022-11-03T09:33:00.896Z,5.00
2022-11-03T09:35:28.072Z,5.90
2022-11-03T09:37:54.824Z,4.30
2022-11-03T09:40:21.821Z,5.00
2022-11-03T09:42:48.715Z,4.80
2022-11-03T09:45:15.537Z,4.20
2022-11-03T09:47:43.912Z,3.70
2022-11-03T09:50:15.677Z,2.60
2022-11-03T09:52:45.127Z,3.70
2022-11-03T09:55:25.690Z,3.10
2022-11-03T09:57:55.033Z,4.10
2022-11-03T10:00:24.180Z,2.90
2022-11-03T10:02:51.342Z,2.80
2022-11-03T10:05:24.188Z,3.50
2022-11-03T10:10:22.218Z,3.90
2022-11-03T10:12:53.155Z,4.30
2022-11-03T10:15:23.275Z,4.20
2022-11-03T10:17:50.781Z,3.00
2022-11-03T10:20:21.108Z,3.30
2022-11-03T10:22:52.939Z,3.60
2022-11-03T10:25:37.220Z,3.20
2022-11-03T10:28:14.588Z,3.00
2022-11-03T10:31:12.231Z,3.40
2022-11-03T10:33:50.498Z,3.60
2022-11-03T10:36:17.209Z,3.00
2022-11-03T10:38:44.441Z,3.80
2022-11-03T10:41:14.107Z,4.70
2022-11-03T10:43:43.298Z,3.40
2022-11-03T10:49:14.115Z,3.00
2022-11-03T10:51:43.242Z,3.00
2022-11-03T10:54:14.795Z,3.90
2022-11-03T10:56:42.677Z,3.20
2022-11-03T10:59:19.800Z,2.90
2022-11-03T11:01:46.976Z,2.50
2022-11-03T11:04:17.019Z,3.50
2022-11-03T11:06:44.934Z,3.10
2022-11-03T11:09:14.801Z,3.10
2022-11-03T11:11:59.864Z,3.10
2022-11-03T11:14:28.068Z,2.50
2022-11-03T11:16:56.764Z,2.80
2022-11-03T11:19:25.839Z,3.30
2022-11-03T11:21:52.714Z,2.50
2022-11-03T11:24:50.319Z,3.10
2022-11-03T11:27:37.069Z,3.00
2022-11-03T11:30:31.027Z,3.20
2022-11-03T11:33:00.736Z,3.30
2022-11-03T11:35:27.386Z,3.10
2022-11-03T11:37:54.791Z,3.70
2022-11-03T11:40:25.131Z,3.30
2022-11-03T11:43:13.482Z,2.90
2022-11-03T11:46:11.234Z,3.10
2022-11-03T11:48:38.474Z,3.50
2022-11-03T11:51:11.243Z,3.50
2022-11-03T11:53:41.107Z,3.60
2022-11-03T11:56:12.105Z,3.60
2022-11-03T11:58:45.105Z,3.00
2022-11-03T12:01:31.056Z,3.60
2022-11-03T12:04:02.166Z,3.40
2022-11-03T12:06:39.148Z,3.70
2022-11-03T12:09:13.484Z,3.30
2022-11-03T12:11:45.601Z,2.80
2022-11-03T12:14:28.658Z,3.60
2022-11-03T12:16:56.754Z,3.20
2022-11-03T12:19:40.545Z,3.20
2022-11-03T12:22:10.549Z,2.50
2022-11-03T12:24:46.882Z,1.90
2022-11-03T12:27:25.852Z,2.20
2022-11-03T12:29:54.108Z,1.90
2022-11-03T12:32:32.799Z,2.20
2022-11-03T12:35:00.261Z,2.90
2022-11-03T12:37:27.024Z,2.60
2022-11-03T12:39:53.695Z,2.90
2022-11-03T12:42:21.252Z,2.20
2022-11-03T12:44:48.063Z,2.00
2022-11-03T12:47:14.810Z,2.50
2022-11-03T12:49:41.571Z,2.50
2022-11-03T12:52:08.718Z,2.30
2022-11-03T12:54:35.682Z,2.50
2022-11-03T12:57:02.505Z,3.00
2022-11-03T12:59:29.281Z,3.10
2022-11-03T13:01:56.283Z,2.80
2022-11-03T13:04:23.323Z,3.30
2022-11-03T13:06:50.031Z,3.70
2022-11-03T13:09:16.808Z,3.60
2022-11-03T13:11:58.934Z,3.80
2022-11-03T13:14:26.753Z,4.20
2022-11-03T13:16:53.531Z,3.50
2022-11-03T13:19:20.490Z,3.30
2022-11-03T13:21:47.225Z,3.80
2022-11-03T13:24:13.975Z,4.60
2022-11-03T13:26:40.659Z,4.80
2022-11-03T13:29:07.792Z,3.90
2022-11-03T13:31:35.861Z,3.50
2022-11-03T13:34:02.635Z,3.00
2022-11-03T13:36:29.383Z,4.00
2022-11-03T13:38:56.338Z,4.10
2022-11-03T13:41:24.230Z,3.90
2022-11-03T13:43:50.942Z,3.80
2022-11-03T13:46:17.729Z,3.70
2022-11-03T13:51:31.939Z,3.40
2022-11-03T13:59:32.460Z,3.00
2022-11-03T14:04:46.700Z,3.00
2022-11-03T14:07:13.666Z,3.00
2022-11-03T14:09:40.716Z,2.70
2022-11-03T14:12:23.222Z,2.70
2022-11-03T14:14:49.953Z,2.80
2022-11-03T14:17:16.774Z,2.90
2022-11-03T14:19:48.696Z,3.40
2022-11-03T14:22:19.352Z,3.00
2022-11-03T14:33:05.353Z,3.00
2022-11-03T14:35:32.198Z,2.70
2022-11-03T14:37:59.041Z,2.80
2022-11-03T14:40:45.682Z,2.80
2022-11-03T14:43:12.384Z,3.00
2022-11-03T14:45:42.450Z,2.70
2022-11-03T14:48:09.892Z,2.70
2022-11-03T14:50:37.209Z,2.80
2022-11-03T14:53:03.857Z,2.90
2022-11-03T14:55:30.555Z,2.90
2022-11-03T14:57:57.257Z,3.50
2022-11-03T15:00:24.148Z,3.30
2022-11-03T15:02:50.845Z,3.30
2022-11-03T15:05:32.885Z,3.50
2022-11-03T15:07:59.596Z,4.20
2022-11-03T15:10:26.411Z,4.30
2022-11-03T15:12:53.107Z,4.30
2022-11-03T15:15:19.778Z,4.20
2022-11-03T15:17:46.502Z,6.80
2022-11-03T15:20:13.279Z,7.30
2022-11-03T15:25:30.037Z,27.80
2022-11-03T15:28:00.570Z,86.70
2022-11-03T15:30:27.888Z,103.90
2022-11-03T15:32:56.521Z,153.10
2022-11-03T15:35:24.433Z,96.40
2022-11-03T15:37:51.248Z,346.90
2022-11-03T15:40:18.102Z,146.10
2022-11-03T15:42:45.138Z,34.70
2022-11-03T15:45:13.674Z,15.00
2022-11-03T15:47:40.639Z,27.30
2022-11-03T15:50:09.124Z,14.00
2022-11-03T15:52:35.909Z,11.20
2022-11-03T15:55:02.934Z,10.20
2022-11-03T15:57:30.583Z,11.30
2022-11-03T15:59:57.962Z,10.00
2022-11-03T16:02:42.339Z,9.40
2022-11-03T16:05:09.731Z,9.80
2022-11-03T16:07:36.500Z,9.10
2022-11-03T16:10:03.861Z,9.00
2022-11-03T16:12:30.590Z,43.00
2022-11-03T16:14:57.687Z,245.00
2022-11-03T16:17:24.473Z,131.80
2022-11-03T16:19:51.152Z,31.30
2022-11-03T16:22:17.941Z,18.20
2022-11-03T16:24:46.609Z,42.20
2022-11-03T16:27:13.387Z,25.80
2022-11-03T16:29:40.301Z,13.10
2022-11-03T16:32:07.051Z,11.80
2022-11-03T16:34:33.704Z,11.40
2022-11-03T16:37:00.851Z,12.30
2022-11-03T16:39:27.656Z,10.80
2022-11-03T16:41:55.261Z,8.50
2022-11-03T16:44:22.262Z,9.80
2022-11-03T16:46:49.190Z,11.50
2022-11-03T16:49:15.880Z,12.30
2022-11-03T16:51:42.580Z,11.90
2022-11-03T16:54:09.656Z,11.10
2022-11-03T16:56:36.759Z,10.30
2022-11-03T16:59:03.458Z,11.30
2022-11-03T17:01:30.293Z,8.00
2022-11-03T17:03:57.013Z,11.80
2022-11-03T17:06:23.750Z,14.20
2022-11-03T17:08:53.525Z,15.40
2022-11-03T17:11:36.191Z,21.10
2022-11-03T17:14:06.753Z,20.60
2022-11-03T17:16:33.999Z,13.30
2022-11-03T17:19:00.739Z,8.40
2022-11-03T17:21:27.900Z,8.00
2022-11-03T17:23:54.664Z,8.40
2022-11-03T17:26:28.801Z,7.70
2022-11-03T17:31:24.946Z,7.00
2022-11-03T17:33:52.769Z,8.20
2022-11-03T17:36:19.588Z,7.70
2022-11-03T17:38:46.406Z,7.40
2022-11-03T17:41:16.423Z,7.50
2022-11-03T17:43:45.643Z,9.30
2022-11-03T17:46:12.307Z,7.70
2022-11-03T17:48:40.111Z,7.00
2022-11-03T17:51:11.984Z,8.70
2022-11-03T17:53:41.851Z,8.10
2022-11-03T17:56:30.182Z,8.90
2022-11-03T17:58:57.859Z,7.40
2022-11-03T18:01:27.499Z,8.90
2022-11-03T18:03:54.692Z,9.60
2022-11-03T18:06:21.566Z,10.90
2022-11-03T18:08:49.315Z,8.90
2022-11-03T18:11:41.491Z,8.10
2022-11-03T18:14:08.406Z,8.50
2022-11-03T18:16:35.143Z,7.80
2022-11-03T18:19:01.888Z,7.50
2022-11-03T18:21:30.177Z,6.40
2022-11-03T18:23:56.894Z,7.20
2022-11-03T18:26:25.955Z,6.80
2022-11-03T18:28:54.043Z,6.90
2022-11-03T18:31:24.700Z,6.60
2022-11-03T18:33:52.283Z,6.10
2022-11-03T18:36:20.176Z,5.80
2022-11-03T18:38:48.642Z,6.10
2022-11-03T18:41:35.053Z,5.80
2022-11-03T18:44:02.839Z,6.70
2022-11-03T18:46:30.475Z,5.70
2022-11-03T18:48:57.227Z,6.70
2022-11-03T18:51:24.030Z,7.40
2022-11-03T18:53:50.772Z,7.00
2022-11-03T18:56:19.732Z,8.10
2022-11-03T18:59:01.789Z,7.00
2022-11-03T19:01:29.444Z,9.00
2022-11-03T19:03:57.306Z,7.70
2022-11-03T19:06:24.674Z,32.30
2022-11-03T19:08:58.296Z,9.70
2022-11-03T19:11:25.709Z,9.40
2022-11-03T19:13:52.614Z,8.50
2022-11-03T19:16:22.149Z,10.00
2022-11-03T19:18:49.790Z,8.80
2022-11-03T19:21:20.779Z,8.70
2022-11-03T19:23:49.044Z,8.90
2022-11-03T19:26:21.061Z,8.60
2022-11-03T19:28:50.372Z,8.60
2022-11-03T19:31:34.570Z,7.40
2022-11-03T19:34:02.526Z,8.20
2022-11-03T19:36:32.660Z,8.70
2022-11-03T19:39:00.465Z,8.00
2022-11-03T19:41:42.611Z,7.60
2022-11-03T19:44:11.538Z,9.10
2022-11-03T19:46:40.418Z,7.40
2022-11-03T19:49:10.057Z,9.10
2022-11-03T19:51:37.079Z,9.40
2022-11-03T19:54:07.118Z,9.40
2022-11-03T19:56:40.848Z,8.70
2022-11-03T19:59:11.717Z,9.40
2022-11-03T20:01:38.649Z,9.50
2022-11-03T20:04:05.851Z,10.60
2022-11-03T20:06:34.813Z,9.80
2022-11-03T20:09:06.414Z,8.50
2022-11-03T20:11:34.821Z,9.20
2022-11-03T20:14:03.721Z,8.90
2022-11-03T20:16:33.056Z,12.30
2022-11-03T20:18:59.706Z,12.90
2022-11-03T20:21:31.466Z,9.40
2022-11-03T20:24:01.027Z,11.50
2022-11-03T20:26:28.315Z,9.60
2022-11-03T20:28:56.506Z,9.30
2022-11-03T20:31:23.729Z,9.40
2022-11-03T20:33:52.087Z,11.90
2022-11-03T20:36:20.444Z,8.90
2022-11-03T20:38:54.262Z,12.30
2022-11-03T20:41:21.189Z,9.00
2022-11-03T20:43:48.177Z,8.80
2022-11-03T20:46:25.509Z,10.60
2022-11-03T20:48:53.418Z,9.30
2022-11-03T20:51:23.375Z,8.70
2022-11-03T20:53:51.270Z,13.50
2022-11-03T20:56:24.565Z,10.20
2022-11-03T20:58:51.817Z,11.10
2022-11-03T21:01:24.220Z,21.60
2022-11-03T21:04:00.028Z,11.00
2022-11-03T21:06:30.194Z,11.50
2022-11-03T21:08:57.614Z,17.30
2022-11-03T21:11:28.176Z,10.10
2022-11-03T21:14:00.076Z,9.40
2022-11-03T21:16:44.278Z,11.30
2022-11-03T21:19:35.828Z,11.00
2022-11-03T21:22:24.816Z,10.30
2022-11-03T21:24:58.245Z,24.60
2022-11-03T21:27:24.890Z,19.20
2022-11-03T21:29:59.329Z,10.50
2022-11-03T21:32:26.692Z,18.50
2022-11-03T21:34:53.421Z,12.00
2022-11-03T21:37:20.503Z,9.90
2022-11-03T21:39:47.776Z,13.90
2022-11-03T21:42:31.554Z,24.90
2022-11-03T21:44:59.254Z,12.00
2022-11-03T21:47:26.786Z,16.40
2022-11-03T21:49:53.577Z,11.30
2022-11-03T21:52:38.286Z,11.40
2022-11-03T21:55:05.452Z,9.70
2022-11-03T21:57:32.261Z,9.80
2022-11-03T21:59:59.144Z,13.50
2022-11-03T22:02:30.081Z,9.80
2022-11-03T22:04:57.596Z,9.70
2022-11-03T22:07:24.282Z,10.40
2022-11-03T22:09:50.987Z,9.20
2022-11-03T22:12:17.721Z,8.80
2022-11-03T22:14:59.598Z,9.40
2022-11-03T22:17:26.322Z,9.20
2022-11-03T22:20:08.399Z,9.40
2022-11-03T22:22:50.811Z,9.20
2022-11-03T22:25:33.083Z,8.70
2022-11-03T22:27:59.868Z,8.60
2022-11-03T22:30:41.843Z,8.20
2022-11-03T22:33:08.576Z,7.50
2022-11-03T22:35:50.684Z,9.50
2022-11-03T22:38:19.257Z,8.10
2022-11-03T22:41:03.101Z,9.20
2022-11-03T22:43:45.063Z,9.30
2022-11-03T22:46:14.099Z,8.70
2022-11-03T22:48:41.122Z,9.20
2022-11-03T22:51:10.786Z,8.10
2022-11-03T22:53:53.568Z,8.90
2022-11-03T22:56:21.938Z,10.00
2022-11-03T22:58:49.321Z,8.30
2022-11-03T23:01:18.850Z,8.10
2022-11-03T23:03:46.839Z,9.10
2022-11-03T23:06:15.843Z,7.10
2022-11-03T23:08:44.095Z,8.80
2022-11-03T23:11:19.541Z,7.50
2022-11-03T23:13:52.642Z,8.20
2022-11-03T23:16:22.045Z,8.50
2022-11-03T23:19:05.278Z,7.70
2022-11-03T23:21:33.953Z,7.80
2022-11-03T23:24:16.698Z,8.00
2022-11-03T23:26:44.828Z,8.50
2022-11-03T23:29:13.366Z,9.00
2022-11-03T23:31:41.742Z,8.70
2022-11-03T23:34:09.890Z,9.10
2022-11-03T23:36:37.059Z,8.90
2022-11-03T23:39:04.443Z,8.20
2022-11-03T23:41:31.190Z,8.90
2022-11-03T23:43:58.333Z,8.90
2022-11-03T23:46:43.195Z,8.80
2022-11-03T23:49:10.816Z,8.60
2022-11-03T23:51:38.614Z,7.60
2022-11-03T23:54:07.480Z,8.80
2022-11-03T23:56:53.539Z,9.40
2022-11-03T23:59:21.155Z,9.00
